Wednesday, June 20, 2018, 3:50 AM EDT
Back to Local

KELZ, Wellsville Municipal Airport

Location: Wellsville, NY, United States Lat: 42.1
Local Time: 3:50 AM EDT ( 7:50 GMT) Lon: -78
Time Zone: US/Eastern Elev: 2122 ft

Show me the last for .
Show Coded

Time T Td Feel RH Dir Speed Gust Alt SLP Vis Weather Sky Remarks
2018-06-20 02:56 59 53 - 80 140° 3 - 29.97 29.94 10 BKN110 None
2018-06-20 01:56 58 55 - 90 120° 3 - 29.99 29.96 10 OVC120 6-hr Min Temp (2am): 57.9°F
6-hr Max Temp (2am): 68.0°F
2018-06-20 00:56 60 53 - 77 70° 5 - 30.00 29.98 10 CLR 24-hr Min Temp (1am): 60.1°F
24-hr Max Temp (1am): 75.0°F
2018-06-19 23:56 62 51 - 67 30° 3 - 30.00 29.98 10 CLR None
2018-06-19 22:56 63 49 - 60 60° 3 - 30.01 29.98 10 CLR None
2018-06-19 21:56 64 51 - 62 - Calm - 30.02 29.99 10 CLR None
2018-06-19 20:56 65 51 - 60 60° 3 - 29.99 29.96 10 CLR None
2018-06-19 19:56 68 53 - 58 360° 5 - 30.00 29.97 10 CLR 6-hr Min Temp (8pm): 68.0°F
6-hr Max Temp (8pm): 75.0°F
2018-06-19 18:56 72 54 76 53 330° 9 - 30.01 29.98 10 CLR None
2018-06-19 17:56 73 53 76 49 330° 6 - 30.00 29.97 10 CLR None
2018-06-19 16:56 74 52 77 46 350° 7 - 30.00 29.96 10 CLR None
2018-06-19 15:56 74 55 77 51 320° 9 - 30.01 29.97 10 CLR None
2018-06-19 14:56 74 54 77 49 10° 9 - 30.02 29.98 10 CLR None
2018-06-19 13:56 73 58 77 59 310° 12 - 30.02 29.98 10 CLR 6-hr Min Temp (2pm): 62.1°F
6-hr Max Temp (2pm): 73.0°F
2018-06-19 12:56 72 58 76 61 330° 9 - 30.02 29.98 10 FEW028 None
2018-06-19 11:56 69 58 - 67 10° 8 - 30.03 30.00 10 FEW023 None
2018-06-19 10:56 68 59 - 72 40° 7 - 30.04 30.00 10 SCT018 SCT024 None
2018-06-19 10:43 66 58 - 75 350° 8 - 30.04 - 10 SCT018 None
2018-06-19 10:23 66 58 - 75 20° 8 - 30.04 - 10 SCT014 BKN021 None
2018-06-19 10:13 64 58 - 80 Variable 7 16 30.04 - 10 BKN014 BKN021 None
2018-06-19 09:56 65 58 - 78 20° 10 - 30.04 30.01 10 SCT013 BKN020 None
2018-06-19 09:21 65 59 - 81 30° 9 - 30.04 - 10 SCT014 BKN020 None
2018-06-19 08:56 64 59 - 83 40° 9 - 30.03 29.99 10 BKN013 None
2018-06-19 08:52 63 57 - 82 20° 9 - 30.03 - 10 BKN013 None
2018-06-19 08:30 63 59 - 86 20° 9 - 30.03 - 10 SCT010 None
2018-06-19 07:56 62 59 - 89 20° 8 - 30.02 29.98 10 OVC010 6-hr Precip Total (8am): 0.14"
24-hr Precip Total (8am): 0.69"
6-hr Min Temp (8am): 61.0°F
6-hr Max Temp (8am): 69.1°F
2018-06-19 07:35 62 59 - 89 10° 9 - 30.02 - 10 SCT004 OVC010 None
2018-06-19 07:26 62 60 - 93 20° 9 - 30.01 - 10 OVC004 None
2018-06-19 06:56 63 62 - 96 Variable 5 - 30.00 29.96 8 OVC002 1-hr Precip Total: Trace
2018-06-19 06:11 63 62 - 96 Variable 3 - 29.98 - 5 BR OVC004 1-hr Precip Total: Trace
2018-06-19 05:56 63 63 - 100 10° 7 - 29.98 29.93 2 -RA BR OVC002 1-hr Precip Total: 0.03"
2018-06-19 05:20 66 66 - 100 330° 8 - 29.96 - 1 -RA BR OVC002 1-hr Precip Total: 0.01"
2018-06-19 04:56 67 66 - 96 Variable 7 - 29.95 29.90 2 -RA BR OVC002 1-hr Precip Total: Trace
6-hr Precip Total (5am): 0.11"
2018-06-19 04:38 67 66 - 96 340° 8 17 29.94 - 2 BR OVC003 None
2018-06-19 04:09 67 66 - 96 330° 10 - 29.93 - 10 BKN004 OVC009 None
2018-06-19 03:56 68 67 - 96 330° 10 - 29.93 29.88 9 OVC005 1-hr Precip Total: Trace

Support USWX by starting your Amazon purchase here.